Time;durP1;ratioP1;P1;durP2;ratioP2;P2;SDS_P1;SDS_P2;PMS_P1;PMS_P2;Temp;Humidity;BMP_temperature;BMP_pressure;BME280_temperature;BME280_humidity;BME280_pressure;Samples;Min_cycle;Max_cycle;Signal;HPM_P1;HPM_P2
2021/09/28 00:01:40;;;;;;;1.63;1.10;;;20.80;99.90;;;21.12;59.20;101791.22;5044435;27;99786;-47
2021/09/28 00:04:05;;;;;;;2.73;1.73;;;20.80;99.90;;;21.06;59.07;101796.94;5052300;27;99616;-43
2021/09/28 00:06:31;;;;;;;1.73;0.97;;;20.60;99.90;;;20.99;59.42;101801.81;5004314;27;97136;-48
2021/09/28 00:08:57;;;;;;;3.00;1.20;;;20.60;99.90;;;20.95;59.30;101807.44;5051701;27;97623;-45
2021/09/28 00:11:23;;;;;;;1.67;1.00;;;20.50;99.90;;;20.93;59.57;101809.38;5031928;27;104702;-44
2021/09/28 00:13:49;;;;;;;2.10;1.03;;;20.50;99.90;;;20.90;59.66;101805.06;5046978;27;99983;-45
2021/09/28 00:16:15;;;;;;;1.10;1.00;;;20.50;99.90;;;20.89;59.62;101806.00;5036354;27;100103;-46
2021/09/28 00:18:41;;;;;;;4.43;0.87;;;20.50;99.90;;;20.89;59.88;101807.84;5024702;27;101843;-46
2021/09/28 00:21:06;;;;;;;1.40;0.90;;;20.50;99.90;;;20.91;59.79;101816.66;5036862;27;97604;-43
2021/09/28 00:23:32;;;;;;;1.20;1.00;;;20.50;99.90;;;20.93;59.87;101820.09;5045702;27;99398;-50
2021/09/28 00:25:58;;;;;;;2.13;1.00;;;20.60;99.90;;;20.95;59.69;101810.13;5036154;27;100824;-45
2021/09/28 00:28:28;;;;;;;2.23;1.07;;;20.60;99.90;;;20.99;59.54;101812.56;5035312;27;98717;-47
2021/09/28 00:30:55;;;;;;;1.27;0.90;;;20.70;99.90;;;20.97;59.63;101825.16;5030106;27;101811;-44
2021/09/28 00:33:21;;;;;;;1.00;0.70;;;20.60;99.90;;;20.95;59.47;101816.34;5027277;27;98819;-47
2021/09/28 00:35:47;;;;;;;2.70;1.10;;;20.60;99.90;;;20.93;59.61;101823.63;5049803;27;100035;-45
2021/09/28 00:38:13;;;;;;;1.50;1.20;;;20.60;99.90;;;20.93;59.61;101829.00;5049528;27;99602;-48
2021/09/28 00:40:39;;;;;;;1.83;1.00;;;20.50;99.90;;;20.94;59.71;101829.88;5024671;27;100848;-46
2021/09/28 00:43:04;;;;;;;2.00;0.90;;;20.50;99.90;;;20.95;59.67;101832.44;5031800;27;99660;-50
2021/09/28 00:45:30;;;;;;;1.10;1.00;;;20.60;99.90;;;20.96;59.59;101825.25;5043920;27;98816;-47
2021/09/28 00:47:56;;;;;;;1.57;0.90;;;20.60;99.90;;;20.95;59.64;101829.75;5031261;27;101818;-45
2021/09/28 00:50:22;;;;;;;1.60;1.10;;;20.50;99.90;;;20.94;59.56;101824.50;5046416;27;98339;-52
2021/09/28 00:52:49;;;;;;;1.40;0.90;;;20.50;99.90;;;20.94;59.48;101825.34;5022286;27;99695;-46
2021/09/28 00:55:16;;;;;;;3.00;1.20;;;20.60;99.90;;;20.93;59.55;101829.00;5030813;27;99121;-50
2021/09/28 00:57:43;;;;;;;3.03;1.07;;;20.60;99.90;;;20.94;59.41;101830.72;5030229;27;100770;-44
2021/09/28 01:00:10;;;;;;;0.83;0.67;;;20.60;99.90;;;20.95;59.59;101824.41;5032159;27;100661;-45
2021/09/28 01:02:37;;;;;;;1.43;1.00;;;20.60;99.90;;;20.96;59.47;101839.53;5027521;27;97684;-49
2021/09/28 01:05:06;;;;;;;1.37;0.93;;;20.60;99.90;;;20.96;59.46;101834.16;5049112;27;97275;-46
2021/09/28 01:07:32;;;;;;;1.03;0.97;;;20.60;99.90;;;20.96;59.25;101834.16;5026215;27;100019;-47
2021/09/28 01:09:58;;;;;;;1.30;0.70;;;20.60;99.90;;;20.97;59.41;101835.91;5030916;27;99321;-44
2021/09/28 01:12:25;;;;;;;1.47;0.90;;;20.60;99.90;;;20.96;59.40;101834.16;5029305;27;97099;-48
2021/09/28 01:14:50;;;;;;;2.37;1.13;;;20.60;99.90;;;20.95;59.59;101842.31;5029789;27;98689;-45
2021/09/28 01:17:18;;;;;;;1.30;0.90;;;20.60;99.90;;;20.96;59.56;101844.91;5031500;27;97406;-47
2021/09/28 01:19:45;;;;;;;2.03;1.07;;;20.60;99.90;;;20.98;59.40;101842.16;5028544;27;99103;-46
2021/09/28 01:22:13;;;;;;;1.70;1.10;;;20.60;99.90;;;20.99;59.22;101850.09;5069255;27;97501;-48
2021/09/28 01:24:44;;;;;;;1.00;0.80;;;20.60;99.90;;;20.97;59.42;101851.13;5059458;27;97081;-47
2021/09/28 01:27:11;;;;;;;0.90;0.80;;;20.60;99.90;;;20.96;59.33;101850.25;5076070;27;97638;-45
2021/09/28 01:29:37;;;;;;;1.10;0.77;;;20.60;99.90;;;20.95;59.30;101853.91;5049187;27;99988;-49
2021/09/28 01:32:04;;;;;;;1.63;1.00;;;20.60;99.90;;;20.95;59.41;101853.91;5070823;27;97555;-50
2021/09/28 01:34:30;;;;;;;1.63;1.20;;;20.60;99.90;;;20.95;59.53;101853.03;5055511;27;98360;-47
2021/09/28 01:36:56;;;;;;;1.37;0.80;;;20.60;99.90;;;20.98;59.40;101852.88;5059926;27;96930;-48
2021/09/28 01:39:23;;;;;;;4.90;1.27;;;20.60;99.90;;;20.99;59.46;101857.28;5071247;27;104881;-44
2021/09/28 01:41:49;;;;;;;1.33;0.80;;;20.70;99.90;;;20.99;59.31;101854.59;5069853;27;98236;-48
2021/09/28 01:44:19;;;;;;;1.33;0.80;;;20.70;99.90;;;21.03;59.23;101851.63;5058017;27;97338;-48
2021/09/28 01:46:48;;;;;;;1.73;1.10;;;20.70;99.90;;;21.05;59.02;101859.59;5056069;27;97376;-46
2021/09/28 01:49:16;;;;;;;3.80;1.70;;;20.80;99.90;;;21.07;58.78;101855.84;5074508;27;96958;-45
2021/09/28 01:51:43;;;;;;;0.90;0.80;;;20.80;99.90;;;21.01;58.91;101856.22;5051798;27;99549;-44
2021/09/28 01:54:10;;;;;;;0.80;0.80;;;20.70;99.90;;;20.99;59.10;101860.84;5058473;27;97654;-47
2021/09/28 01:56:36;;;;;;;1.10;0.87;;;20.60;99.90;;;20.96;59.29;101850.25;5037272;27;96965;-44
2021/09/28 01:59:05;;;;;;;1.27;0.97;;;20.60;99.90;;;20.97;59.22;101857.34;5057316;27;100743;-47
2021/09/28 02:01:31;;;;;;;4.27;1.13;;;20.60;99.90;;;20.94;59.42;101854.84;5066926;27;98248;-46
2021/09/28 02:03:57;;;;;;;2.40;1.07;;;20.60;99.90;;;20.95;59.26;101853.03;5035262;27;96980;-46
2021/09/28 02:06:24;;;;;;;1.70;0.90;;;20.60;99.90;;;20.94;59.42;101852.19;5066406;27;98272;-46
2021/09/28 02:08:51;;;;;;;1.10;0.80;;;20.60;99.90;;;20.93;59.54;101853.13;5065405;27;98560;-44
2021/09/28 02:11:18;;;;;;;1.27;0.80;;;20.60;99.90;;;20.93;59.50;101855.81;5073041;27;97862;-43
2021/09/28 02:13:43;;;;;;;1.57;1.10;;;20.60;99.90;;;20.93;59.26;101855.81;5050376;27;98410;-45
2021/09/28 02:16:11;;;;;;;1.17;0.80;;;20.60;99.90;;;20.92;59.49;101854.09;5076260;27;96965;-48
2021/09/28 02:18:37;;;;;;;1.90;1.10;;;20.60;99.90;;;20.90;59.28;101856.00;5048404;27;98940;-50
2021/09/28 02:21:03;;;;;;;4.60;1.20;;;20.50;99.90;;;20.89;59.35;101862.34;5055688;27;99997;-47
2021/09/28 02:23:29;;;;;;;1.67;0.80;;;20.50;99.90;;;20.85;59.54;101863.47;5053305;27;98598;-48
2021/09/28 02:25:56;;;;;;;1.27;0.90;;;20.40;99.90;;;20.83;59.45;101859.13;5077194;27;97069;-44
2021/09/28 02:28:22;;;;;;;3.80;1.20;;;20.40;99.90;;;20.83;59.71;101860.03;5050313;27;97555;-49
2021/09/28 02:30:48;;;;;;;1.93;1.23;;;20.40;99.90;;;20.84;59.42;101855.53;5073320;27;98378;-45
2021/09/28 02:33:14;;;;;;;2.17;0.87;;;20.50;99.90;;;20.86;59.54;101857.16;5072199;27;96975;-44
2021/09/28 02:35:39;;;;;;;1.20;0.90;;;20.50;99.90;;;20.86;59.49;101862.53;5072994;27;97383;-46
2021/09/28 02:38:05;;;;;;;1.17;0.77;;;20.50;99.90;;;20.86;59.34;101854.47;5054297;27;101523;-48
2021/09/28 02:40:31;;;;;;;1.93;1.00;;;20.50;99.90;;;20.86;59.24;101850.94;5055056;27;99119;-46
2021/09/28 02:42:57;;;;;;;2.47;1.30;;;20.50;99.90;;;20.85;59.28;101852.75;5059159;27;98348;-44
2021/09/28 02:45:23;;;;;;;0.90;0.70;;;20.50;99.90;;;20.86;59.27;101849.13;5044033;27;96928;-46
2021/09/28 02:47:49;;;;;;;1.23;0.90;;;20.50;99.90;;;20.83;59.32;101854.66;5067989;27;98674;-47
2021/09/28 02:50:15;;;;;;;1.90;1.10;;;20.50;99.90;;;20.83;59.47;101843.94;5058697;27;97301;-49
2021/09/28 02:52:41;;;;;;;2.53;0.83;;;20.50;99.90;;;20.83;59.32;101854.66;5055629;27;97433;-46
2021/09/28 02:55:07;;;;;;;0.93;0.77;;;20.50;99.90;;;20.87;59.16;101856.19;5075481;27;97168;-44
2021/09/28 02:57:34;;;;;;;1.60;0.90;;;20.50;99.90;;;20.90;59.25;101855.16;5054229;27;102882;-48
2021/09/28 03:00:00;;;;;;;1.80;0.90;;;20.60;99.90;;;20.86;59.27;101859.84;5041651;27;97064;-48
2021/09/28 03:02:25;;;;;;;1.90;1.00;;;20.50;99.90;;;20.81;59.53;101859.22;5056701;27;98732;-45
2021/09/28 03:04:51;;;;;;;1.57;0.83;;;20.40;99.90;;;20.85;59.55;101858.13;5053594;27;97039;-47
2021/09/28 03:07:17;;;;;;;1.27;0.83;;;20.50;99.90;;;20.92;58.97;101859.47;5058904;27;97596;-46
2021/09/28 03:09:43;;;;;;;1.20;0.80;;;20.60;99.90;;;20.93;59.10;101861.19;5069765;27;99597;-44
2021/09/28 03:12:09;;;;;;;0.90;0.80;;;20.60;99.90;;;20.98;58.90;101863.63;5061638;27;97565;-47
2021/09/28 03:14:35;;;;;;;1.43;0.90;;;20.70;99.90;;;21.02;58.85;101866.00;5058523;27;97484;-50
2021/09/28 03:17:01;;;;;;;1.20;0.90;;;20.80;99.90;;;21.05;58.72;101865.81;5067535;27;98300;-49
2021/09/28 03:19:27;;;;;;;2.87;1.00;;;20.80;99.90;;;21.05;58.72;101868.50;5057233;27;98241;-48
2021/09/28 03:21:53;;;;;;;1.43;0.80;;;20.80;99.90;;;21.07;58.69;101866.59;5070259;27;96841;-48
2021/09/28 03:24:19;;;;;;;2.60;1.10;;;20.80;99.90;;;21.04;58.74;101869.44;5060475;27;97492;-45
2021/09/28 03:26:46;;;;;;;1.80;1.10;;;20.80;99.90;;;21.03;58.88;101867.72;5051558;27;97649;-48
2021/09/28 03:29:12;;;;;;;2.03;1.07;;;20.70;99.90;;;21.03;58.73;101867.72;5073528;27;98409;-46
2021/09/28 03:31:38;;;;;;;2.07;1.03;;;20.70;99.90;;;21.02;58.73;101882.09;5048062;27;97877;-44
2021/09/28 03:34:04;;;;;;;1.80;1.07;;;20.70;99.90;;;21.04;58.76;101880.19;5060120;27;97026;-45
2021/09/28 03:36:30;;;;;;;1.93;1.03;;;20.70;99.90;;;21.08;58.81;101879.03;5066115;27;99337;-43
2021/09/28 03:38:56;;;;;;;1.30;1.10;;;20.80;99.90;;;21.14;58.67;101882.31;5057572;27;97350;-45
2021/09/28 03:41:22;;;;;;;2.67;1.20;;;20.80;99.90;;;21.12;58.60;101892.25;5038619;27;102741;-47
2021/09/28 03:43:48;;;;;;;2.70;0.77;;;20.90;99.90;;;21.13;58.40;101896.69;5047202;27;97978;-48
2021/09/28 03:46:14;;;;;;;3.83;1.33;;;20.80;99.90;;;21.16;58.42;101891.13;5073191;27;97928;-46
2021/09/28 03:48:40;;;;;;;2.80;1.00;;;20.90;99.90;;;21.22;58.11;101893.44;5052173;27;99202;-44
2021/09/28 03:51:07;;;;;;;1.60;1.00;;;21.00;99.90;;;21.26;58.13;101886.94;5055445;27;99052;-49
2021/09/28 03:53:33;;;;;;;2.07;1.00;;;21.00;99.90;;;21.25;58.15;101898.63;5069629;27;97268;-43
2021/09/28 03:55:59;;;;;;;2.43;1.10;;;21.00;99.90;;;21.26;58.14;101900.38;5058925;27;103156;-44
2021/09/28 03:58:25;;;;;;;2.20;1.20;;;21.00;99.90;;;21.30;57.95;101896.56;5056258;27;98289;-49
2021/09/28 04:00:51;;;;;;;1.97;1.27;;;21.10;99.90;;;21.35;57.60;101895.31;5053400;27;97016;-44
2021/09/28 04:03:17;;;;;;;2.10;1.10;;;21.20;99.90;;;21.35;57.81;101905.19;5054677;27;97289;-46
2021/09/28 04:05:43;;;;;;;2.93;1.17;;;21.20;99.90;;;21.32;57.71;101916.13;5054910;27;97652;-45
2021/09/28 04:08:09;;;;;;;1.30;1.00;;;21.10;99.90;;;21.29;57.70;101910.94;5073283;27;122135;-48
2021/09/28 04:10:35;;;;;;;2.50;1.27;;;21.10;99.90;;;21.30;57.98;101907.28;5071041;27;97121;-46
2021/09/28 04:13:11;;;;;;;3.00;1.20;;;21.00;99.90;;;21.32;57.62;101908.06;5034179;27;97013;-48
2021/09/28 04:15:40;;;;;;;2.43;1.17;;;21.10;99.90;;;21.33;57.56;101907.09;5067656;27;98453;-47
2021/09/28 04:18:12;;;;;;;1.93;0.93;;;21.10;99.90;;;21.35;57.73;101905.19;5072532;27;98187;-47
2021/09/28 04:20:42;;;;;;;1.90;1.20;;;21.20;99.90;;;21.36;57.58;101907.78;5065904;27;98098;-44
2021/09/28 04:23:10;;;;;;;1.83;0.90;;;21.20;99.90;;;21.38;57.61;101915.72;5055558;27;97054;-43
2021/09/28 04:25:37;;;;;;;2.30;1.17;;;21.20;99.90;;;21.37;57.54;101917.53;5048713;27;97487;-47
2021/09/28 04:28:03;;;;;;;2.07;1.30;;;21.20;99.90;;;21.40;57.44;101913.81;5055252;27;98310;-45
2021/09/28 04:30:29;;;;;;;1.90;1.10;;;21.20;99.90;;;21.42;57.45;101919.09;5065030;27;97648;-45
2021/09/28 04:32:55;;;;;;;1.10;0.87;;;21.30;99.90;;;21.43;57.37;101923.50;5080851;27;97993;-44
2021/09/28 04:35:21;;;;;;;1.30;1.10;;;21.30;99.90;;;21.44;57.34;101920.75;5053614;27;98216;-46
2021/09/28 04:37:47;;;;;;;1.87;1.30;;;21.30;99.90;;;21.44;57.27;101925.25;5065499;27;99058;-45
2021/09/28 04:40:13;;;;;;;4.37;1.70;;;21.30;99.90;;;21.41;57.33;101926.28;5056387;27;96787;-45
2021/09/28 04:42:40;;;;;;;1.87;1.33;;;21.20;99.90;;;21.36;57.32;101923.00;5063817;27;97487;-48
2021/09/28 04:45:07;;;;;;;2.90;1.20;;;21.20;99.90;;;21.32;57.56;101927.72;5053412;27;99499;-43
2021/09/28 04:47:33;;;;;;;2.03;1.17;;;21.10;99.90;;;21.28;57.65;101919.94;5064861;27;99020;-47
2021/09/28 04:49:58;;;;;;;2.43;1.30;;;21.00;99.90;;;21.22;57.73;101920.25;5070415;27;97296;-46
2021/09/28 04:52:24;;;;;;;2.17;1.23;;;21.00;99.90;;;21.22;57.65;101931.88;5053504;27;97328;-43
2021/09/28 04:54:50;;;;;;;2.37;1.10;;;20.90;99.90;;;21.24;57.85;101934.44;5069762;27;96822;-45
2021/09/28 04:57:16;;;;;;;2.07;1.47;;;21.00;99.90;;;21.29;57.50;101932.41;5052918;27;99000;-48
2021/09/28 04:59:42;;;;;;;2.07;1.27;;;21.10;99.90;;;21.33;57.59;101936.63;5038912;27;99791;-43
2021/09/28 05:02:08;;;;;;;1.63;1.30;;;21.10;99.90;;;21.32;57.50;101938.44;5070512;27;100264;-45
2021/09/28 05:04:34;;;;;;;3.97;1.70;;;21.10;99.90;;;21.32;57.33;101932.22;5066732;27;98126;-50
2021/09/28 05:06:59;;;;;;;2.23;1.20;;;21.10;99.90;;;21.32;57.55;101932.22;5056066;27;97379;-46
2021/09/28 05:09:27;;;;;;;2.50;1.43;;;21.10;99.90;;;21.34;57.32;101935.66;5035096;27;97237;-49
2021/09/28 05:11:55;;;;;;;1.70;1.30;;;21.20;99.90;;;21.36;57.19;101947.16;5051506;27;99831;-46
2021/09/28 05:14:21;;;;;;;1.23;1.13;;;21.20;99.90;;;21.37;57.28;101940.84;5056193;27;98975;-45
2021/09/28 05:16:47;;;;;;;1.70;1.20;;;21.20;99.90;;;21.37;57.20;101946.22;5068855;27;97428;-45
2021/09/28 05:19:13;;;;;;;3.07;1.37;;;21.20;99.90;;;21.34;57.37;101941.03;5056323;27;97445;-44
2021/09/28 05:21:39;;;;;;;2.60;1.30;;;21.20;99.90;;;21.33;57.44;101950.03;5035081;27;97390;-44
2021/09/28 05:24:07;;;;;;;2.67;1.30;;;21.10;99.90;;;21.32;57.29;101951.00;5055469;27;98382;-44
2021/09/28 05:26:33;;;;;;;2.83;1.37;;;21.10;99.90;;;21.28;57.25;101944.09;5065220;27;98086;-43
2021/09/28 05:28:59;;;;;;;1.73;1.20;;;21.00;99.90;;;21.28;57.49;101941.41;5054337;27;99821;-45
2021/09/28 05:31:24;;;;;;;1.80;1.20;;;21.00;99.90;;;21.26;57.37;101948.66;5073496;27;96753;-44
2021/09/28 05:33:50;;;;;;;1.70;1.33;;;21.00;99.90;;;21.21;57.58;101940.00;5051586;27;105774;-50
2021/09/28 05:36:16;;;;;;;1.90;1.10;;;20.90;99.90;;;21.26;57.61;101943.31;5073758;27;98201;-46
2021/09/28 05:38:42;;;;;;;1.57;1.33;;;21.00;99.90;;;21.25;57.62;101952.31;5067203;27;97644;-45
2021/09/28 05:41:09;;;;;;;2.77;1.47;;;21.00;99.90;;;21.25;57.40;101952.31;5069766;27;96844;-47
2021/09/28 05:43:36;;;;;;;2.83;1.70;;;21.00;99.90;;;21.26;57.53;101945.97;5066694;27;97806;-44
2021/09/28 05:46:02;;;;;;;2.30;1.40;;;21.00;99.90;;;21.24;57.48;101948.72;5052770;27;100095;-45
2021/09/28 05:48:28;;;;;;;1.60;1.23;;;21.00;99.90;;;21.19;57.64;101955.34;5051262;27;96953;-47
2021/09/28 05:50:54;;;;;;;1.90;1.30;;;20.90;99.90;;;21.17;57.85;101954.56;5052582;27;97315;-46
2021/09/28 05:53:20;;;;;;;1.73;1.20;;;20.90;99.90;;;21.16;57.78;101955.53;5053042;27;98406;-43
2021/09/28 05:55:46;;;;;;;1.73;1.30;;;20.90;99.90;;;21.19;57.52;101949.97;5053418;27;97332;-43
2021/09/28 05:58:12;;;;;;;1.97;1.00;;;21.00;99.90;;;21.19;57.56;101952.66;5052728;27;96733;-45
2021/09/28 06:00:39;;;;;;;1.77;1.50;;;21.00;99.90;;;21.15;57.72;101957.34;5061986;27;113008;-45
2021/09/28 06:03:06;;;;;;;1.40;1.03;;;20.90;99.90;;;21.12;57.99;101951.28;5073777;27;97635;-44
2021/09/28 06:05:32;;;;;;;1.87;1.20;;;20.80;99.90;;;21.15;57.68;101946.63;5067317;27;98561;-47
2021/09/28 06:07:58;;;;;;;1.40;1.10;;;20.90;99.90;;;21.18;57.68;101946.44;5048506;27;97566;-45
2021/09/28 06:10:24;;;;;;;2.30;1.30;;;20.90;99.90;;;21.13;57.66;101948.53;5060122;27;97656;-46
2021/09/28 06:12:50;;;;;;;1.67;1.13;;;20.90;99.90;;;21.19;57.61;101947.28;5070128;27;98062;-47
2021/09/28 06:15:16;;;;;;;1.83;1.10;;;21.00;99.90;;;21.12;57.65;101951.28;5081094;27;104134;-45
2021/09/28 06:17:42;;;;;;;1.13;1.00;;;20.90;99.90;;;21.09;57.73;101947.81;5045709;27;97351;-48
2021/09/28 06:20:09;;;;;;;2.17;1.13;;;20.80;99.90;;;21.02;57.81;101942.94;5055727;27;97163;-49
2021/09/28 06:22:35;;;;;;;1.90;1.37;;;20.70;99.90;;;20.98;58.15;101939.56;5032445;27;97128;-45
2021/09/28 06:25:01;;;;;;;1.80;1.40;;;20.70;99.90;;;21.00;58.05;101943.03;5076254;27;97435;-49
2021/09/28 06:27:27;;;;;;;2.53;1.17;;;20.70;99.90;;;21.07;57.81;101939.00;5058713;27;97382;-47
2021/09/28 06:29:53;;;;;;;1.47;0.90;;;20.80;99.90;;;21.08;57.92;101946.09;5052505;27;97327;-45
2021/09/28 06:32:22;;;;;;;2.13;1.17;;;20.80;99.90;;;21.15;57.68;101945.75;5053466;27;98647;-46
2021/09/28 06:34:49;;;;;;;2.57;1.40;;;20.90;99.90;;;21.17;57.62;101950.06;5051344;27;100133;-44
2021/09/28 06:37:15;;;;;;;1.80;1.20;;;21.00;99.90;;;21.14;57.75;101946.72;5077054;27;97415;-43
2021/09/28 06:39:41;;;;;;;1.57;1.23;;;20.90;99.90;;;21.10;57.58;101948.69;5071733;27;99077;-45
2021/09/28 06:42:07;;;;;;;1.90;1.40;;;20.80;99.90;;;21.10;57.84;101949.56;5078769;27;96852;-44
2021/09/28 06:44:33;;;;;;;2.50;1.23;;;20.80;99.90;;;21.14;57.65;101954.75;5065392;27;99133;-43
2021/09/28 06:46:59;;;;;;;1.70;1.10;;;20.90;99.90;;;21.22;57.29;101953.31;5065561;27;97490;-48
2021/09/28 06:49:25;;;;;;;1.67;1.03;;;21.00;99.90;;;21.30;57.25;101956.47;5057050;27;98305;-43
2021/09/28 06:51:51;;;;;;;2.00;1.40;;;21.20;99.90;;;21.39;56.81;101960.41;5056102;27;102983;-43
2021/09/28 06:54:17;;;;;;;2.80;1.50;;;21.30;99.90;;;21.42;56.81;101954.00;5072561;27;97165;-43
2021/09/28 06:56:42;;;;;;;2.17;1.13;;;21.30;99.90;;;21.45;56.69;101954.66;5053449;27;97483;-46
2021/09/28 06:59:10;;;;;;;2.07;1.17;;;21.40;99.90;;;21.50;56.62;101968.66;5074657;27;103637;-46
2021/09/28 07:01:39;;;;;;;1.07;0.97;;;21.40;99.90;;;21.54;56.44;101966.66;5066047;27;97557;-44
2021/09/28 07:04:06;;;;;;;6.23;1.63;;;21.50;99.90;;;21.52;56.47;101961.38;5072002;27;97133;-45
2021/09/28 07:06:32;;;;;;;1.77;1.10;;;21.50;99.90;;;21.55;56.14;101966.56;5058274;27;98031;-45
2021/09/28 07:08:59;;;;;;;1.93;1.30;;;21.50;99.90;;;21.57;55.96;101970.03;5051505;27;97196;-46
2021/09/28 07:11:26;;;;;;;2.53;1.23;;;21.60;99.90;;;21.61;56.09;101971.56;5043917;27;96844;-46
2021/09/28 07:13:52;;;;;;;2.00;1.27;;;21.60;99.90;;;21.64;55.77;101965.13;5042634;27;98320;-45
2021/09/28 07:16:19;;;;;;;1.83;1.30;;;21.60;99.90;;;21.63;55.88;101964.28;5066660;27;99284;-48
2021/09/28 07:18:45;;;;;;;1.97;1.10;;;21.60;99.90;;;21.63;55.68;101966.09;5068486;27;97195;-44
2021/09/28 07:21:11;;;;;;;1.90;1.20;;;21.60;99.90;;;21.64;55.62;101971.38;5073541;27;97104;-45
2021/09/28 07:23:38;;;;;;;2.33;1.10;;;21.70;99.90;;;21.64;55.65;101982.13;5051924;27;97317;-45
2021/09/28 07:26:07;;;;;;;1.60;1.00;;;21.70;99.90;;;21.69;55.66;101980.00;5075600;27;97675;-47
2021/09/28 07:28:35;;;;;;;1.80;1.30;;;21.70;99.90;;;21.71;55.59;101979.06;5035898;27;97976;-46
2021/09/28 07:31:01;;;;;;;2.47;1.40;;;21.70;99.90;;;21.71;55.61;101968.31;5034182;27;98484;-47
2021/09/28 07:33:27;;;;;;;3.23;1.30;;;21.70;99.90;;;21.73;55.47;101974.47;5034650;27;98325;-43
2021/09/28 07:35:53;;;;;;;2.00;1.10;;;21.70;99.90;;;21.76;55.50;101979.63;5029476;27;99758;-43
2021/09/28 07:38:19;;;;;;;3.07;1.50;;;21.70;99.90;;;21.69;55.44;101977.31;5034006;27;100699;-43
2021/09/28 07:40:48;;;;;;;3.50;1.63;;;21.70;99.90;;;21.69;55.22;101985.38;5035246;27;111271;-50
2021/09/28 07:43:15;;;;;;;2.10;1.07;;;21.60;99.90;;;21.60;55.38;101985.94;5046683;27;99179;-46
2021/09/28 07:45:41;;;;;;;2.27;1.10;;;21.50;99.90;;;21.57;55.88;101983.47;5043229;27;98237;-47
2021/09/28 07:48:07;;;;;;;3.40;1.30;;;21.40;99.90;;;21.56;55.89;101984.41;5031845;27;98380;-44
2021/09/28 07:50:33;;;;;;;2.40;1.40;;;21.50;99.90;;;21.60;55.99;101985.09;5025809;27;100012;-47
2021/09/28 07:52:59;;;;;;;1.80;1.13;;;21.50;99.90;;;21.61;55.78;101992.19;5027570;27;102954;-49
2021/09/28 07:55:26;;;;;;;3.00;1.47;;;21.60;99.90;;;21.60;55.61;101991.31;5031550;27;99366;-45
2021/09/28 07:57:52;;;;;;;1.50;1.10;;;21.60;99.90;;;21.63;55.69;101984.91;5027414;27;97329;-44
2021/09/28 08:00:19;;;;;;;2.60;1.13;;;21.60;99.90;;;21.63;55.61;101991.13;5049413;27;98256;-47
2021/09/28 08:02:44;;;;;;;2.43;0.97;;;21.70;99.90;;;21.66;55.45;101990.94;5046371;27;97200;-44
2021/09/28 08:05:11;;;;;;;6.63;2.37;;;21.70;99.90;;;21.60;51.26;101991.31;5033038;27;98363;-45
2021/09/28 08:07:41;;;;;;;1.80;1.23;;;21.60;99.90;;;21.58;55.52;101998.59;5047315;27;97613;-43
2021/09/28 08:10:11;;;;;;;2.57;1.17;;;21.50;99.90;;;21.53;52.13;101994.47;5046749;27;97363;-46
2021/09/28 08:12:37;;;;;;;2.47;1.00;;;21.40;99.90;;;21.49;55.83;101993.78;5024153;27;99154;-48
2021/09/28 08:15:05;;;;;;;5.97;1.63;;;21.30;99.90;;;21.46;55.64;101993.97;5031541;27;98697;-44
2021/09/28 08:17:31;;;;;;;2.07;1.10;;;21.30;99.90;;;21.50;56.00;101994.66;5027863;27;96978;-44
2021/09/28 08:19:57;;;;;;;4.23;1.70;;;21.30;99.90;;;21.48;55.88;101989.38;5031938;27;98697;-44
2021/09/28 08:22:24;;;;;;;2.20;1.00;;;21.30;99.90;;;21.50;55.93;101992.81;5033785;27;98475;-43
2021/09/28 08:24:53;;;;;;;6.00;1.63;;;21.30;99.90;;;21.43;54.51;101983.44;5046477;27;97595;-45
2021/09/28 08:30:08;;;;;;;1.57;0.90;;;21.30;99.90;;;21.37;56.25;101986.47;5045741;27;101525;-43
2021/09/28 08:32:35;;;;;;;2.87;1.10;;;21.20;99.90;;;21.41;56.35;101990.72;5024720;27;100134;-46
2021/09/28 08:35:01;;;;;;;2.27;1.00;;;21.30;99.90;;;21.47;56.03;101995.69;5044193;27;98052;-48
2021/09/28 08:37:27;;;;;;;2.20;1.07;;;21.40;99.90;;;21.54;55.81;101989.00;5031800;27;101705;-43
2021/09/28 08:39:55;;;;;;;5.70;1.90;;;21.50;99.90;;;21.53;54.01;101995.31;5042688;27;103572;-47
2021/09/28 08:42:22;;;;;;;6.93;1.87;;;21.50;99.90;;;21.47;53.35;101990.34;5026470;27;98926;-44
2021/09/28 08:44:48;;;;;;;3.87;1.57;;;21.40;99.90;;;21.35;53.22;101991.06;5021948;27;98449;-48
2021/09/28 08:47:14;;;;;;;2.77;1.43;;;21.20;99.90;;;20.69;58.00;101997.59;5031511;27;99224;-43
2021/09/28 08:49:40;;;;;;;2.47;0.93;;;20.30;99.90;;;20.94;57.67;101990.78;5023059;27;97793;-45
2021/09/28 08:52:07;;;;;;;1.47;1.10;;;20.60;99.90;;;21.05;57.12;101994.56;5047037;27;97610;-43
2021/09/28 08:54:33;;;;;;;4.33;1.80;;;20.80;99.90;;;21.12;55.24;101994.19;5040635;27;98509;-48
2021/09/28 08:57:00;;;;;;;4.07;1.37;;;20.90;99.90;;;21.14;56.39;101992.31;5026446;27;97494;-46
2021/09/28 08:59:49;;;;;;;2.83;0.87;;;21.00;99.90;;;21.12;53.90;101983.47;5027355;27;98612;-44
2021/09/28 09:02:15;;;;;;;5.03;1.53;;;20.90;99.90;;;21.05;56.40;101983.84;5026312;27;103775;-45
2021/09/28 09:04:44;;;;;;;2.53;1.30;;;20.80;99.90;;;21.07;57.11;101992.66;5043584;27;97517;-45
2021/09/28 09:07:28;;;;;;;1.90;1.17;;;20.80;99.90;;;21.17;56.59;101984.09;5031400;27;97972;-47
2021/09/28 09:09:54;;;;;;;3.30;1.10;;;21.00;99.90;;;21.19;56.35;101979.50;5021399;27;100382;-51
2021/09/28 09:12:36;;;;;;;2.63;1.30;;;21.00;99.90;;;21.26;56.48;101980.88;5031226;27;99138;-45
2021/09/28 09:15:27;;;;;;;2.53;1.00;;;21.10;99.90;;;21.25;56.55;101989.88;5023735;27;98424;-45
2021/09/28 09:17:56;;;;;;;4.07;1.03;;;21.10;99.90;;;21.30;56.67;101987.81;5030094;27;100083;-46
2021/09/28 09:20:36;;;;;;;2.33;1.00;;;21.20;99.90;;;21.35;56.27;101977.66;5027699;27;98688;-43
2021/09/28 09:23:32;;;;;;;3.20;0.97;;;21.30;99.90;;;21.42;56.01;101975.47;5044842;27;102210;-42
2021/09/28 09:26:04;;;;;;;1.50;0.83;;;21.40;99.90;;;21.45;55.91;101981.50;5042775;27;96881;-48
2021/09/28 09:28:34;;;;;;;1.63;0.80;;;21.50;99.90;;;21.48;56.02;101975.09;5026073;27;98464;-49
2021/09/28 09:31:29;;;;;;;1.73;1.00;;;21.50;99.90;;;21.50;55.83;101968.66;5051087;27;99538;-44
2021/09/28 09:34:05;;;;;;;1.27;1.10;;;21.60;99.90;;;21.56;55.53;101968.31;5044514;27;100512;-44
2021/09/28 09:36:31;;;;;;;3.40;1.37;;;21.60;99.90;;;21.60;55.46;101964.47;5025835;27;97518;-44
2021/09/28 09:38:58;;;;;;;2.00;0.90;;;21.60;99.90;;;21.58;55.42;101963.69;5049064;27;97507;-47
2021/09/28 09:41:31;;;;;;;1.77;0.90;;;21.70;99.90;;;21.64;55.18;101966.00;5015337;27;97305;-48
2021/09/28 09:44:15;;;;;;;1.00;0.90;;;21.70;99.90;;;21.69;55.05;101958.50;5028966;27;101497;-44
2021/09/28 09:46:50;;;;;;;3.80;1.20;;;21.70;99.90;;;21.72;55.06;101956.63;5024285;27;100489;-48
2021/09/28 09:49:36;;;;;;;1.37;0.70;;;21.80;99.90;;;21.81;54.77;101961.41;5030647;27;98277;-45
2021/09/28 09:52:10;;;;;;;2.47;1.30;;;21.80;99.90;;;21.83;54.87;101954.09;5022354;27;109516;-46
2021/09/28 09:54:41;;;;;;;1.60;0.67;;;21.80;99.90;;;21.82;54.91;101952.38;5041551;27;97260;-50
2021/09/28 09:57:13;;;;;;;2.23;0.80;;;21.90;99.90;;;21.83;54.88;101946.91;5015921;27;99269;-42
2021/09/28 09:59:40;;;;;;;1.67;0.90;;;21.90;99.90;;;21.85;54.69;101949.53;5027764;27;97256;-47
2021/09/28 10:02:08;;;;;;;2.27;0.80;;;21.90;99.90;;;21.87;54.08;101955.66;5050174;27;97511;-45
2021/09/28 10:04:35;;;;;;;3.47;1.03;;;21.90;99.90;;;21.85;54.73;101950.41;5044079;27;100196;-46
2021/09/28 10:07:01;;;;;;;2.17;1.10;;;21.80;99.90;;;21.86;54.55;101948.56;5047873;27;99330;-46
2021/09/28 10:09:38;;;;;;;8.93;2.57;;;21.90;99.90;;;21.74;51.27;101954.69;5027577;27;99193;-47
2021/09/28 10:12:08;;;;;;;5.07;1.40;;;21.70;99.90;;;21.67;54.95;101949.69;5042868;27;100587;-48
2021/09/28 10:14:39;;;;;;;2.73;0.90;;;21.60;99.90;;;21.67;55.10;101952.38;5025274;27;101220;-44